Time;durP1;ratioP1;P1;durP2;ratioP2;P2;SDS_P1;SDS_P2;PMS_P1;PMS_P2;Temp;Humidity;BMP_temperature;BMP_pressure;BME280_temperature;BME280_humidity;BME280_pressure;Samples;Min_cycle;Max_cycle;Signal;HPM_P1;HPM_P2
2023/05/06 00:01:45;;;;;;;25.95;18.35;;;;;;;11.42;87.24;100484.50;10207671;29;20566;-77
2023/05/06 00:06:48;;;;;;;25.60;18.27;;;;;;;11.09;87.60;100490.81;10204136;29;20040;-77
2023/05/06 00:11:51;;;;;;;26.50;17.35;;;;;;;11.04;87.29;100488.50;10206504;29;20043;-78
2023/05/06 00:16:55;;;;;;;25.33;17.52;;;;;;;10.71;87.70;100492.06;10210849;29;20119;-77
2023/05/06 00:21:58;;;;;;;28.75;17.75;;;;;;;10.56;87.39;100496.00;10211215;29;20094;-77
2023/05/06 00:27:01;;;;;;;26.20;17.10;;;;;;;10.31;88.42;100489.88;10211185;29;20047;-76
2023/05/06 00:32:06;;;;;;;25.77;17.80;;;;;;;10.30;89.01;100506.09;10200866;29;20044;-76
2023/05/06 00:37:08;;;;;;;27.58;18.10;;;;;;;10.33;88.53;100495.09;10226906;29;20051;-79
2023/05/06 00:42:11;;;;;;;33.35;19.15;;;;;;;10.56;88.22;100494.16;10197349;29;20365;-76
2023/05/06 00:47:17;;;;;;;31.52;18.90;;;;;;;10.41;88.06;100499.88;10191376;29;20474;-77
2023/05/06 00:52:20;;;;;;;32.22;20.45;;;;;;;10.47;87.40;100502.91;10207543;29;20477;-77
2023/05/06 00:57:23;;;;;;;34.28;18.95;;;;;;;10.67;86.66;100489.75;10207731;29;20048;-77
2023/05/06 01:02:27;;;;;;;29.98;18.45;;;;;;;10.70;86.94;100495.75;10191998;29;20129;-78
2023/05/06 01:07:55;;;;;;;31.40;19.23;;;;;;;10.79;87.07;100488.78;10192483;29;20080;-78
2023/05/06 01:13:07;;;;;;;30.65;18.80;;;;;;;10.79;87.05;100491.47;10191647;29;20086;-77
2023/05/06 01:18:16;;;;;;;27.05;16.65;;;;;;;10.74;86.91;100494.50;10204039;29;20115;-77
2023/05/06 01:23:21;;;;;;;25.30;17.10;;;;;;;10.62;86.97;100495.50;10209457;29;20046;-76
2023/05/06 01:28:25;;;;;;;35.00;19.85;;;;;;;10.63;87.63;100483.75;10191868;29;20131;-76
2023/05/06 01:33:35;;;;;;;26.25;16.25;;;;;;;10.70;87.85;100484.16;10209210;29;20115;-76
2023/05/06 01:38:45;;;;;;;23.20;15.00;;;;;;;10.64;87.38;100490.00;10175046;29;20071;-77
2023/05/06 01:43:49;;;;;;;27.40;16.80;;;;;;;10.50;87.35;100486.56;10189410;29;20106;-76
2023/05/06 01:48:55;;;;;;;27.88;17.35;;;;;;;10.44;87.55;100489.75;10191510;29;20082;-77
2023/05/06 01:53:59;;;;;;;30.38;19.27;;;;;;;10.51;87.38;100498.19;10191751;29;20055;-77
2023/05/06 01:59:02;;;;;;;32.58;20.27;;;;;;;10.56;87.89;100493.31;10182227;29;20095;-76
2023/05/06 02:04:05;;;;;;;32.22;18.38;;;;;;;10.64;87.97;100496.25;10189812;29;20047;-77
2023/05/06 02:09:10;;;;;;;34.20;19.67;;;;;;;10.70;88.02;100506.50;10203630;29;20039;-77
2023/05/06 02:14:18;;;;;;;29.92;19.08;;;;;;;10.86;88.36;100507.94;10191454;29;20071;-77
2023/05/06 02:19:21;;;;;;;32.65;20.05;;;;;;;10.94;88.50;100514.44;10206940;29;20491;-77
2023/05/06 02:24:26;;;;;;;33.78;20.85;;;;;;;10.99;87.92;100495.22;10194453;29;20047;-77
2023/05/06 02:29:28;;;;;;;39.90;22.05;;;;;;;10.98;87.83;100498.91;10215806;29;20376;-77
2023/05/06 02:34:32;;;;;;;40.03;23.27;;;;;;;10.93;88.22;100493.88;10198514;29;20071;-76
2023/05/06 02:39:36;;;;;;;36.22;21.85;;;;;;;10.94;87.70;100492.03;10214641;29;20036;-76
2023/05/06 02:44:39;;;;;;;37.90;22.02;;;;;;;10.90;88.19;100488.75;10215097;29;20074;-77
2023/05/06 02:49:42;;;;;;;39.60;24.42;;;;;;;10.94;88.26;100486.66;10212944;29;20043;-76
2023/05/06 02:54:46;;;;;;;39.55;22.48;;;;;;;10.81;88.04;100487.66;10214536;29;20047;-77
2023/05/06 02:59:49;;;;;;;38.65;22.05;;;;;;;10.48;87.06;100488.53;10197519;29;20102;-76
2023/05/06 03:04:52;;;;;;;41.85;24.20;;;;;;;10.40;87.70;100488.28;10197186;29;20079;-76
2023/05/06 03:09:56;;;;;;;41.10;22.67;;;;;;;10.37;87.60;100494.75;10191613;29;20052;-77
2023/05/06 03:14:59;;;;;;;40.08;22.65;;;;;;;10.36;87.56;100484.97;10205071;29;20052;-77
2023/05/06 03:20:02;;;;;;;40.80;23.90;;;;;;;10.41;87.82;100497.19;10193440;29;20048;-77
2023/05/06 03:25:08;;;;;;;38.72;22.55;;;;;;;10.44;87.77;100494.25;10192380;29;20585;-78
2023/05/06 03:30:14;;;;;;;31.33;19.80;;;;;;;10.34;87.61;100495.00;10178924;29;20119;-78
2023/05/06 03:35:18;;;;;;;33.95;20.45;;;;;;;10.32;87.74;100488.88;10191628;29;20063;-77
2023/05/06 03:40:27;;;;;;;33.80;20.98;;;;;;;10.23;87.44;100507.53;10192893;29;20044;-78
2023/05/06 03:45:31;;;;;;;33.67;20.10;;;;;;;10.16;87.34;100497.28;10181148;29;20044;-77
2023/05/06 03:50:37;;;;;;;29.70;17.42;;;;;;;10.10;87.56;100491.53;10186671;29;20044;-78
2023/05/06 03:55:41;;;;;;;32.60;19.33;;;;;;;10.10;87.70;100507.63;10205521;23;20071;-79
2023/05/06 04:00:46;;;;;;;27.25;17.08;;;;;;;10.15;88.06;100516.19;10189417;29;20040;-78
2023/05/06 04:05:50;;;;;;;40.25;21.85;;;;;;;10.31;88.61;100505.97;10190308;29;20090;-80
2023/05/06 04:11:03;;;;;;;35.70;20.67;;;;;;;10.46;88.38;100503.06;10196963;29;20044;-79
2023/05/06 04:16:08;;;;;;;34.85;20.90;;;;;;;10.53;88.49;100507.84;10181530;29;20107;-79
2023/05/06 04:21:15;;;;;;;33.63;20.45;;;;;;;10.50;88.26;100512.56;10190596;29;20102;-79
2023/05/06 04:26:24;;;;;;;38.45;21.35;;;;;;;10.49;88.34;100526.97;10189802;29;20040;-79
2023/05/06 04:31:28;;;;;;;48.25;21.40;;;;;;;10.52;88.57;100513.31;10193093;29;20416;-79
2023/05/06 04:36:35;;;;;;;40.42;19.55;;;;;;;10.70;88.58;100524.44;10188108;29;20097;-79
2023/05/06 04:41:51;;;;;;;40.67;15.02;;;;;;;10.50;86.32;100532.22;10183272;29;20052;-78
2023/05/06 04:47:01;;;;;;;124.75;18.15;;;;;;;10.20;87.17;100531.94;10179944;29;20048;-78
2023/05/06 04:52:04;;;;;;;178.10;18.35;;;;;;;10.04;87.76;100530.44;10184110;29;20067;-78
2023/05/06 04:57:10;;;;;;;148.68;20.15;;;;;;;10.21;88.85;100531.81;10171036;29;20122;-78
2023/05/06 05:02:16;;;;;;;97.75;17.23;;;;;;;10.51;88.12;100539.31;10180136;29;20048;-79
2023/05/06 05:07:19;;;;;;;92.82;20.35;;;;;;;10.40;88.42;100547.38;10174838;29;20433;-78
2023/05/06 05:12:24;;;;;;;55.70;20.20;;;;;;;10.78;89.03;100552.41;10182751;29;20071;-79
2023/05/06 05:17:28;;;;;;;167.18;21.55;;;;;;;10.81;88.74;100549.47;10185560;29;20047;-79
2023/05/06 05:22:32;;;;;;;144.45;21.17;;;;;;;11.03;89.27;100559.38;10208361;29;20043;-78
2023/05/06 05:27:37;;;;;;;83.72;18.75;;;;;;;10.55;87.52;100559.56;10198373;29;20047;-79
2023/05/06 05:32:40;;;;;;;81.50;20.05;;;;;;;10.97;88.92;100561.69;10188820;29;20104;-79
2023/05/06 05:37:43;;;;;;;190.40;23.52;;;;;;;11.04;86.04;100570.97;10189801;29;20036;-79
2023/05/06 05:42:47;;;;;;;108.78;18.58;;;;;;;10.64;86.59;100581.31;10179038;29;20058;-79
2023/05/06 05:47:57;;;;;;;78.20;19.33;;;;;;;11.16;87.71;100574.53;10177311;29;20052;-78
2023/05/06 05:53:01;;;;;;;43.55;18.25;;;;;;;11.57;87.58;100576.53;10199454;29;20074;-77
2023/05/06 05:58:07;;;;;;;48.45;15.00;;;;;;;11.46;84.65;100577.44;10186288;29;20138;-79
2023/05/06 06:03:10;;;;;;;58.10;16.38;;;;;;;11.45;86.24;100580.25;10211482;29;20507;-79
2023/05/06 06:08:13;;;;;;;46.67;16.70;;;;;;;11.64;86.65;100588.50;10193468;29;20063;-79
2023/05/06 06:13:18;;;;;;;81.60;18.30;;;;;;;11.90;87.02;100583.69;10206624;29;20051;-79
2023/05/06 06:18:21;;;;;;;25.23;15.15;;;;;;;12.09;85.75;100599.13;10198334;29;20039;-79
2023/05/06 06:23:24;;;;;;;32.22;15.55;;;;;;;12.02;82.75;100594.41;10187343;29;20074;-77
2023/05/06 06:28:28;;;;;;;26.77;13.48;;;;;;;11.98;83.17;100601.00;10170426;29;20059;-77
2023/05/06 06:33:31;;;;;;;21.83;12.85;;;;;;;11.61;81.43;100601.38;10172232;29;20058;-78
2023/05/06 06:38:34;;;;;;;18.83;12.25;;;;;;;11.67;82.31;100599.03;10156313;29;20131;-78
2023/05/06 06:43:38;;;;;;;26.25;12.80;;;;;;;11.97;81.96;100597.47;10170455;29;20051;-78
2023/05/06 06:48:58;;;;;;;26.23;12.65;;;;;;;12.47;83.87;100596.88;10177996;29;20047;-78
2023/05/06 06:54:01;;;;;;;26.70;13.10;;;;;;;12.50;79.77;100602.84;10199829;29;20048;-78
2023/05/06 06:59:05;;;;;;;31.65;13.30;;;;;;;12.34;81.17;100602.47;10178485;29;20136;-78
2023/05/06 07:04:08;;;;;;;17.92;12.90;;;;;;;12.56;83.95;100613.13;10207068;29;20084;-78
2023/05/06 07:09:12;;;;;;;24.02;13.32;;;;;;;13.02;80.65;100613.66;10196060;29;20067;-78
2023/05/06 07:14:16;;;;;;;25.80;13.50;;;;;;;12.89;79.39;100619.28;10213288;29;20075;-78
2023/05/06 07:19:19;;;;;;;19.13;13.18;;;;;;;11.92;80.32;100632.84;10200980;29;20043;-78
2023/05/06 07:24:22;;;;;;;20.17;13.73;;;;;;;12.48;82.97;100634.50;10191210;29;20058;-78
2023/05/06 07:29:26;;;;;;;22.55;15.80;;;;;;;12.82;81.25;100618.94;10142690;29;20055;-78
2023/05/06 07:34:29;;;;;;;23.48;15.02;;;;;;;13.04;77.89;100628.72;10177075;29;20157;-77
2023/05/06 07:39:31;;;;;;;16.35;11.80;;;;;;;13.60;79.46;100621.13;10185483;29;20051;-78
2023/05/06 07:44:36;;;;;;;16.98;12.88;;;;;;;13.84;79.44;100626.16;10174636;29;20054;-77
2023/05/06 07:49:38;;;;;;;16.02;11.57;;;;;;;13.58;76.50;100633.94;10173708;29;20186;-78
2023/05/06 07:54:41;;;;;;;16.77;11.77;;;;;;;13.83;75.71;100637.97;10172419;29;20051;-78
2023/05/06 07:59:47;;;;;;;18.55;12.98;;;;;;;14.02;72.62;100642.56;10167051;29;20059;-77
2023/05/06 08:04:50;;;;;;;18.52;13.43;;;;;;;14.04;72.30;100652.22;10166622;29;20151;-78
2023/05/06 08:09:53;;;;;;;20.70;13.43;;;;;;;14.13;72.66;100651.38;10166654;29;20039;-77
2023/05/06 08:14:57;;;;;;;21.17;14.50;;;;;;;14.17;74.83;100662.72;10167492;29;20099;-78
2023/05/06 08:20:00;;;;;;;20.40;13.98;;;;;;;14.40;77.46;100662.47;10191983;29;20051;-76
2023/05/06 08:25:04;;;;;;;15.13;11.55;;;;;;;14.04;70.35;100676.53;10174437;29;20052;-77
2023/05/06 08:30:10;;;;;;;14.75;11.43;;;;;;;14.81;72.86;100672.16;10187493;29;20040;-79
2023/05/06 08:35:12;;;;;;;16.65;11.45;;;;;;;15.35;72.22;100677.84;10170165;29;20052;-77
2023/05/06 08:40:19;;;;;;;17.60;13.07;;;;;;;15.54;67.54;100671.50;10159422;29;20071;-77
2023/05/06 08:45:23;;;;;;;14.50;11.23;;;;;;;16.25;64.82;100674.34;10149042;29;20079;-78
2023/05/06 08:50:28;;;;;;;17.35;11.20;;;;;;;16.23;64.07;100673.63;10166007;29;20077;-78
2023/05/06 08:55:34;;;;;;;16.67;12.35;;;;;;;16.87;64.06;100668.13;10163537;29;20067;-77
2023/05/06 09:00:38;;;;;;;16.40;12.55;;;;;;;17.26;65.74;100660.44;10161324;29;20648;-77
2023/05/06 09:05:41;;;;;;;13.60;11.02;;;;;;;17.60;60.52;100668.56;10163299;29;20059;-77
2023/05/06 09:10:45;;;;;;;14.00;11.27;;;;;;;18.19;62.87;100655.00;10164404;29;20309;-77
2023/05/06 09:15:49;;;;;;;14.13;10.35;;;;;;;18.64;60.19;100658.25;10159396;29;20131;-77
2023/05/06 09:20:52;;;;;;;13.35;9.55;;;;;;;19.01;56.67;100649.59;10168254;29;20059;-77
2023/05/06 09:25:57;;;;;;;11.23;7.70;;;;;;;18.67;58.14;100649.75;10154647;29;20536;-79
2023/05/06 09:31:01;;;;;;;11.02;9.25;;;;;;;19.07;54.77;100648.88;10158163;29;20059;-77
2023/05/06 09:36:05;;;;;;;11.10;9.15;;;;;;;19.57;55.06;100646.88;10150991;29;20056;-77
2023/05/06 09:41:10;;;;;;;8.40;7.47;;;;;;;18.97;53.84;100646.34;10164620;29;20075;-77
2023/05/06 09:46:14;;;;;;;6.05;4.80;;;;;;;18.49;52.01;100639.06;10162744;29;20052;-76
2023/05/06 09:51:17;;;;;;;7.93;5.57;;;;;;;19.04;51.37;100640.22;10174877;29;20108;-78
2023/05/06 09:56:21;;;;;;;6.18;5.57;;;;;;;18.72;51.95;100633.78;10169469;29;21591;-78
2023/05/06 10:01:26;;;;;;;6.28;5.18;;;;;;;18.99;52.72;100632.56;10156694;29;20058;-78
2023/05/06 10:06:40;;;;;;;5.97;4.05;;;;;;;20.28;50.08;100628.56;10157955;29;20522;-78
2023/05/06 10:11:45;;;;;;;3.97;3.58;;;;;;;20.96;45.21;100627.63;10150451;29;20123;-76
2023/05/06 10:16:50;;;;;;;3.15;2.70;;;;;;;21.43;44.27;100631.06;10158602;29;20691;-77
2023/05/06 10:21:57;;;;;;;3.58;2.15;;;;;;;20.03;44.64;100625.16;10155597;29;20059;-76
2023/05/06 10:27:05;;;;;;;2.17;1.98;;;;;;;20.15;45.81;100629.16;10158148;29;20646;-77
2023/05/06 10:32:11;;;;;;;2.53;2.15;;;;;;;21.02;42.54;100607.75;10163359;29;20064;-77
2023/05/06 10:37:14;;;;;;;1.73;1.40;;;;;;;20.39;43.52;100613.69;10157738;29;20063;-77
2023/05/06 10:42:17;;;;;;;3.15;2.40;;;;;;;21.20;42.58;100614.75;10160284;29;20055;-77
2023/05/06 10:47:22;;;;;;;2.28;2.17;;;;;;;21.61;41.50;100606.03;10167248;29;21398;-77
2023/05/06 10:52:25;;;;;;;3.00;2.70;;;;;;;21.66;42.54;100603.59;10162568;29;20095;-78
2023/05/06 10:57:40;;;;;;;3.95;3.35;;;;;;;22.49;41.23;100590.38;10163370;29;21589;-77
2023/05/06 11:02:45;;;;;;;3.85;2.90;;;;;;;23.17;41.63;100594.25;10150897;29;21297;-76
2023/05/06 11:07:50;;;;;;;2.88;2.63;;;;;;;23.59;38.19;100591.53;10169065;29;20659;-77
2023/05/06 11:12:54;;;;;;;3.35;2.42;;;;;;;22.36;41.57;100588.38;10153254;29;20085;-78
2023/05/06 11:18:41;;;;;;;3.95;2.85;;;;;;;23.71;40.57;100592.63;10154047;29;20123;-78
2023/05/06 11:24:06;;;;;;;2.38;1.73;;;;;;;24.30;37.96;100586.44;10167262;29;20183;-77
2023/05/06 11:29:10;;;;;;;2.10;1.83;;;;;;;23.89;39.44;100597.56;10170548;29;21353;-77
2023/05/06 11:34:21;;;;;;;3.88;2.33;;;;;;;24.92;37.51;100581.56;10166565;29;20138;-77
2023/05/06 11:39:29;;;;;;;3.43;2.27;;;;;;;25.63;35.44;100572.47;10158465;29;20044;-75
2023/05/06 11:44:33;;;;;;;2.88;1.77;;;;;;;25.67;33.60;100572.03;10157281;29;20286;-77
2023/05/06 11:49:40;;;;;;;3.42;2.00;;;;;;;26.01;34.97;100577.13;10160987;29;20132;-77
2023/05/06 11:54:43;;;;;;;4.47;2.00;;;;;;;26.17;33.28;100572.16;10170472;29;20056;-76
2023/05/06 11:59:46;;;;;;;3.65;1.98;;;;;;;25.49;35.17;100570.00;10167905;29;20052;-76
2023/05/06 12:04:51;;;;;;;3.33;1.42;;;;;;;25.81;33.26;100568.16;10168197;29;20055;-77
2023/05/06 12:09:54;;;;;;;3.83;1.90;;;;;;;25.25;34.07;100566.06;10162436;29;20054;-78
2023/05/06 12:14:58;;;;;;;1.35;1.10;;;;;;;25.72;34.25;100566.72;10170031;29;20052;-78
2023/05/06 12:20:02;;;;;;;2.60;1.20;;;;;;;26.16;32.36;100571.28;10169346;29;20653;-77
2023/05/06 12:25:16;;;;;;;2.67;1.60;;;;;;;26.14;32.71;100556.94;10161541;29;20118;-78
2023/05/06 12:30:29;;;;;;;3.40;3.10;;;;;;;26.47;35.14;100569.63;10167224;29;20824;-77
2023/05/06 12:35:33;;;;;;;3.45;2.95;;;;;;;27.09;34.97;100564.97;10154319;29;20163;-77
2023/05/06 12:40:37;;;;;;;3.40;3.10;;;;;;;27.18;34.84;100569.13;10162630;29;20044;-78
2023/05/06 12:45:40;;;;;;;4.80;4.03;;;;;;;24.97;37.38;100562.53;10171121;29;20114;-77
2023/05/06 12:50:45;;;;;;;4.60;4.20;;;;;;;23.47;39.32;100573.97;10168374;29;20063;-77
2023/05/06 12:55:48;;;;;;;4.65;3.22;;;;;;;23.39;40.41;100564.88;10166121;29;20043;-77
2023/05/06 13:00:50;;;;;;;6.18;3.72;;;;;;;24.65;38.54;100557.94;10163154;29;21412;-77
2023/05/06 13:05:55;;;;;;;4.43;4.03;;;;;;;25.39;37.63;100548.44;10152266;29;20514;-77
2023/05/06 13:11:00;;;;;;;4.72;3.20;;;;;;;26.45;35.41;100550.56;10157531;29;20604;-77
2023/05/06 13:16:03;;;;;;;3.40;2.90;;;;;;;26.85;33.19;100547.47;10168212;29;20631;-76
2023/05/06 13:21:08;;;;;;;4.68;3.55;;;;;;;26.60;31.94;100541.94;10165705;29;20091;-78
2023/05/06 13:26:11;;;;;;;4.65;3.20;;;;;;;25.13;34.46;100533.75;10139022;29;20058;-77
2023/05/06 13:31:13;;;;;;;3.58;3.03;;;;;;;26.38;35.05;100535.16;10166703;29;20515;-77
2023/05/06 13:36:17;;;;;;;7.95;3.83;;;;;;;26.27;33.00;100528.47;10164445;29;20055;-77
2023/05/06 13:41:21;;;;;;;5.55;3.47;;;;;;;26.28;34.85;100519.16;10164186;29;20071;-77
2023/05/06 13:46:26;;;;;;;5.70;3.75;;;;;;;24.94;36.45;100521.75;10165428;29;20059;-77
2023/05/06 13:51:32;;;;;;;4.18;3.05;;;;;;;25.57;35.91;100528.50;10178323;29;20048;-77
2023/05/06 13:56:35;;;;;;;3.72;2.90;;;;;;;24.40;37.08;100522.06;10167046;29;20440;-77
2023/05/06 14:01:39;;;;;;;3.20;2.95;;;;;;;23.19;39.31;100520.09;10170745;29;20419;-77
2023/05/06 14:06:43;;;;;;;4.35;2.67;;;;;;;23.55;38.55;100505.25;10153170;29;20482;-77
2023/05/06 14:11:46;;;;;;;3.40;3.03;;;;;;;24.04;37.72;100499.44;10167585;29;20486;-77
2023/05/06 14:16:50;;;;;;;4.85;3.80;;;;;;;23.80;38.22;100487.16;10168499;29;20491;-77
2023/05/06 14:21:54;;;;;;;3.90;3.28;;;;;;;24.31;36.44;100491.22;10173476;29;20089;-77
2023/05/06 14:26:57;;;;;;;3.95;2.65;;;;;;;24.52;36.70;100485.50;10163325;29;20736;-77
2023/05/06 14:32:00;;;;;;;4.47;3.00;;;;;;;24.86;37.40;100488.16;10168669;29;20051;-78
2023/05/06 14:37:04;;;;;;;5.75;3.30;;;;;;;24.46;36.97;100483.59;10166407;29;20399;-76
2023/05/06 14:42:07;;;;;;;7.68;2.50;;;;;;;24.10;37.07;100473.91;10161140;29;20119;-76
2023/05/06 14:47:10;;;;;;;4.32;2.50;;;;;;;23.25;38.74;100477.31;10174088;29;20607;-76
2023/05/06 14:52:15;;;;;;;3.05;2.65;;;;;;;23.21;39.54;100474.16;10173402;29;20055;-78
2023/05/06 14:57:18;;;;;;;3.70;2.33;;;;;;;23.41;39.25;100463.25;10174908;29;20058;-78
2023/05/06 15:02:21;;;;;;;3.47;2.53;;;;;;;23.85;39.21;100473.69;10154550;29;20131;-77
2023/05/06 15:07:25;;;;;;;3.72;2.50;;;;;;;24.14;37.54;100468.00;10154643;29;20048;-77
2023/05/06 15:12:28;;;;;;;6.10;2.90;;;;;;;24.53;36.86;100469.88;10169260;29;20051;-77
2023/05/06 15:17:31;;;;;;;4.47;2.50;;;;;;;24.66;37.30;100471.75;10164973;29;20051;-77
2023/05/06 15:22:35;;;;;;;4.10;2.58;;;;;;;25.37;36.16;100463.47;10168035;29;20775;-77
2023/05/06 15:27:41;;;;;;;5.13;3.10;;;;;;;25.09;36.62;100463.78;10170019;29;20044;-75
2023/05/06 15:32:44;;;;;;;3.35;2.67;;;;;;;24.75;36.95;100470.47;10169337;29;20051;-77
2023/05/06 15:37:48;;;;;;;3.97;2.10;;;;;;;24.32;37.83;100469.03;10152437;29;20102;-77
2023/05/06 15:42:51;;;;;;;2.67;2.40;;;;;;;24.74;37.53;100471.53;10161717;29;20541;-76
2023/05/06 15:47:54;;;;;;;3.50;2.25;;;;;;;24.44;37.97;100463.78;10163831;29;20059;-76
2023/05/06 15:52:59;;;;;;;3.17;2.30;;;;;;;24.39;37.58;100462.69;10167274;29;20055;-77
2023/05/06 15:58:02;;;;;;;3.67;2.30;;;;;;;24.30;37.65;100465.66;10164802;29;20060;-77
2023/05/06 16:03:05;;;;;;;2.55;2.15;;;;;;;24.29;37.39;100460.38;10164263;29;20194;-78
2023/05/06 16:08:14;;;;;;;3.50;2.05;;;;;;;24.05;37.67;100467.34;10164533;29;20114;-76
2023/05/06 16:13:18;;;;;;;3.00;2.30;;;;;;;22.88;39.18;100479.47;10156582;29;20044;-77
2023/05/06 16:18:22;;;;;;;3.05;2.33;;;;;;;22.84;40.56;100481.75;10156352;29;20052;-76
2023/05/06 16:23:26;;;;;;;4.70;2.65;;;;;;;22.87;39.86;100478.59;10157503;29;20102;-77
2023/05/06 16:28:29;;;;;;;4.72;2.60;;;;;;;22.76;40.70;100466.34;10159630;29;20079;-77
2023/05/06 16:33:31;;;;;;;3.78;2.75;;;;;;;22.90;40.53;100469.13;10144619;29;20062;-77
2023/05/06 16:38:36;;;;;;;5.10;2.80;;;;;;;22.61;40.43;100468.38;10159937;29;20052;-76
2023/05/06 16:43:39;;;;;;;4.72;3.05;;;;;;;22.82;40.55;100470.19;10143155;29;21285;-76
2023/05/06 16:48:42;;;;;;;4.32;3.15;;;;;;;23.60;39.75;100462.44;10154349;29;20419;-76
2023/05/06 16:53:47;;;;;;;3.95;2.60;;;;;;;24.07;39.07;100462.50;10165250;29;20063;-78
2023/05/06 16:58:49;;;;;;;5.85;3.33;;;;;;;24.25;38.77;100445.41;10140617;29;20238;-76
2023/05/06 17:03:52;;;;;;;4.70;3.28;;;;;;;26.08;35.63;100454.09;10164529;29;20056;-77
2023/05/06 17:08:57;;;;;;;3.55;3.15;;;;;;;26.91;34.54;100449.25;10157913;29;20055;-77
2023/05/06 17:14:00;;;;;;;5.13;3.80;;;;;;;26.20;35.13;100439.56;10174025;29;20058;-77
2023/05/06 17:19:03;;;;;;;6.18;3.83;;;;;;;24.72;36.95;100449.75;10144693;29;20181;-78
2023/05/06 17:24:07;;;;;;;4.65;4.18;;;;;;;23.43;39.09;100452.94;10158378;29;20175;-77
2023/05/06 17:29:10;;;;;;;5.75;3.88;;;;;;;22.27;41.04;100458.19;10151572;29;20539;-78
2023/05/06 17:34:13;;;;;;;6.50;4.00;;;;;;;21.15;42.69;100456.94;10155032;29;20060;-77
2023/05/06 17:39:17;;;;;;;4.65;3.33;;;;;;;20.63;44.38;100459.81;10159867;29;20048;-76
2023/05/06 17:44:20;;;;;;;5.38;3.45;;;;;;;20.22;45.16;100468.38;10156827;29;20597;-77
2023/05/06 17:49:23;;;;;;;6.95;3.78;;;;;;;19.64;46.63;100473.50;10165572;29;20058;-80
2023/05/06 17:54:31;;;;;;;6.03;4.05;;;;;;;19.28;47.60;100473.16;10168444;29;20048;-78
2023/05/06 17:59:34;;;;;;;5.15;4.53;;;;;;;19.01;48.47;100478.09;10171321;29;20047;-78
2023/05/06 18:04:36;;;;;;;7.38;4.53;;;;;;;18.75;49.05;100479.16;10165037;29;20512;-77
2023/05/06 18:09:41;;;;;;;7.80;5.70;;;;;;;18.60;49.62;100488.25;10169133;29;20470;-77
2023/05/06 18:14:44;;;;;;;5.93;4.35;;;;;;;18.41;50.21;100492.19;10168924;29;20063;-76
2023/05/06 18:19:47;;;;;;;5.88;4.93;;;;;;;18.26;50.79;100492.03;10168696;29;20492;-77
2023/05/06 18:24:53;;;;;;;7.95;5.18;;;;;;;18.21;51.27;100498.00;10156790;29;20416;-77
2023/05/06 18:29:58;;;;;;;7.80;5.63;;;;;;;18.00;51.86;100501.25;10162231;29;20047;-78
2023/05/06 18:35:00;;;;;;;7.47;5.32;;;;;;;17.97;52.17;100498.00;10172529;29;20102;-76
2023/05/06 18:40:07;;;;;;;6.47;4.72;;;;;;;17.86;52.86;100501.91;10173741;29;21164;-77
2023/05/06 18:45:11;;;;;;;8.23;5.25;;;;;;;17.73;53.29;100499.66;10174846;29;20087;-77
2023/05/06 18:50:15;;;;;;;10.43;4.82;;;;;;;17.62;53.69;100511.69;10170042;29;20055;-78
2023/05/06 18:55:19;;;;;;;7.10;5.15;;;;;;;17.53;54.17;100518.16;10173357;29;20047;-78
2023/05/06 19:00:23;;;;;;;8.00;5.35;;;;;;;17.43;54.68;100521.00;10166649;29;21280;-78
2023/05/06 19:05:26;;;;;;;7.53;6.07;;;;;;;17.31;55.24;100516.06;10169943;29;20058;-80
2023/05/06 19:10:30;;;;;;;8.02;6.00;;;;;;;17.28;55.34;100521.78;10164835;29;20102;-79
2023/05/06 19:15:34;;;;;;;6.43;5.30;;;;;;;17.15;55.02;100527.72;10173165;29;20087;-77
2023/05/06 19:20:37;;;;;;;12.48;6.13;;;;;;;17.15;55.20;100531.28;10166078;29;20048;-77
2023/05/06 19:25:41;;;;;;;7.70;5.72;;;;;;;16.96;55.01;100535.06;10167696;29;20060;-78
2023/05/06 19:30:44;;;;;;;9.02;6.45;;;;;;;16.92;54.88;100527.38;10163494;29;20159;-77
2023/05/06 19:35:47;;;;;;;9.90;7.10;;;;;;;16.87;54.84;100533.31;10169204;29;20062;-78
2023/05/06 19:40:51;;;;;;;9.98;6.63;;;;;;;16.85;55.09;100534.50;10169055;29;20493;-77
2023/05/06 19:45:54;;;;;;;10.27;6.97;;;;;;;16.73;55.40;100533.91;10161893;29;20051;-77
2023/05/06 19:50:57;;;;;;;11.30;6.70;;;;;;;16.59;55.65;100538.94;10162630;29;20063;-76
2023/05/06 19:56:09;;;;;;;8.43;6.80;;;;;;;16.52;55.91;100532.44;10156892;29;20048;-75
2023/05/06 20:01:12;;;;;;;9.97;6.40;;;;;;;16.58;55.87;100542.63;10158146;29;20048;-77
2023/05/06 20:06:15;;;;;;;8.88;7.03;;;;;;;16.51;55.84;100543.44;10161871;29;20080;-77
2023/05/06 20:11:20;;;;;;;7.95;6.55;;;;;;;16.52;55.99;100542.44;10188081;29;20047;-76
2023/05/06 20:16:23;;;;;;;8.38;6.38;;;;;;;16.40;56.01;100544.56;10158138;29;20079;-77
2023/05/06 20:21:26;;;;;;;7.78;5.90;;;;;;;16.26;56.88;100540.53;10156185;29;20047;-77
2023/05/06 20:26:30;;;;;;;8.40;5.78;;;;;;;16.20;56.90;100543.00;10158876;29;20075;-77
2023/05/06 20:31:33;;;;;;;7.10;6.25;;;;;;;16.21;57.20;100545.56;10153022;29;20052;-78
2023/05/06 20:36:36;;;;;;;10.65;7.07;;;;;;;16.15;57.49;100563.31;10160544;29;20051;-78
2023/05/06 20:41:40;;;;;;;10.00;7.53;;;;;;;16.18;57.88;100580.25;10160170;29;20055;-76
2023/05/06 20:46:44;;;;;;;8.52;6.80;;;;;;;16.13;57.78;100595.13;10157788;29;20044;-77
2023/05/06 20:51:46;;;;;;;7.95;6.18;;;;;;;16.22;58.62;100592.50;10166983;29;21280;-77
2023/05/06 20:56:51;;;;;;;9.10;6.32;;;;;;;16.30;57.90;100581.75;10148210;29;20188;-76
2023/05/06 21:01:53;;;;;;;12.70;9.35;;;;;;;15.93;59.58;100577.31;10154443;29;20225;-76
2023/05/06 21:06:57;;;;;;;13.50;9.80;;;;;;;15.74;61.24;100572.88;10158067;29;20431;-77
2023/05/06 21:12:01;;;;;;;18.08;12.88;;;;;;;15.62;63.60;100571.41;10153595;29;20058;-77
2023/05/06 21:17:04;;;;;;;19.45;12.75;;;;;;;15.55;64.45;100576.59;10164116;29;20729;-77
2023/05/06 21:22:09;;;;;;;19.95;14.00;;;;;;;15.46;65.53;100574.78;10222203;23;20055;-74
2023/05/06 21:27:15;;;;;;;19.80;12.88;;;;;;;15.40;66.61;100570.84;10192868;29;20439;-74
2023/05/06 21:32:18;;;;;;;22.85;14.43;;;;;;;15.38;66.95;100574.69;10192486;29;20139;-75
2023/05/06 21:37:21;;;;;;;19.10;13.98;;;;;;;15.27;67.26;100575.72;10197766;29;20521;-74
2023/05/06 21:42:26;;;;;;;22.25;16.52;;;;;;;15.18;67.23;100574.78;10196965;29;20048;-74
2023/05/06 21:47:29;;;;;;;26.10;18.98;;;;;;;14.96;68.50;100569.75;10191667;29;20379;-75
2023/05/06 21:52:32;;;;;;;24.67;19.27;;;;;;;14.81;68.05;100564.81;10195055;29;20062;-76
2023/05/06 21:57:37;;;;;;;24.27;18.40;;;;;;;14.75;67.94;100559.13;10181369;29;20395;-76
2023/05/06 22:02:40;;;;;;;26.30;19.40;;;;;;;14.53;67.71;100557.63;10191253;29;20040;-74
2023/05/06 22:07:44;;;;;;;24.98;18.80;;;;;;;14.51;67.08;100546.97;10190233;29;20052;-75
2023/05/06 22:12:48;;;;;;;26.05;19.17;;;;;;;14.46;67.18;100549.25;10193685;29;20048;-75
2023/05/06 22:17:51;;;;;;;25.77;18.75;;;;;;;14.49;66.46;100551.69;10214161;23;20052;-78
2023/05/06 22:22:54;;;;;;;28.27;19.38;;;;;;;14.44;66.43;100556.66;10203232;29;20040;-78
2023/05/06 22:27:58;;;;;;;26.40;19.85;;;;;;;14.28;66.86;100543.72;10201392;29;20051;-78
2023/05/06 22:33:01;;;;;;;31.25;19.00;;;;;;;14.34;66.43;100555.78;10192434;29;20043;-77
2023/05/06 22:38:04;;;;;;;28.00;19.40;;;;;;;14.43;66.39;100552.25;10198619;29;20406;-77
2023/05/06 22:43:08;;;;;;;27.90;19.23;;;;;;;14.49;65.81;100554.38;10193966;29;20071;-78
2023/05/06 22:48:11;;;;;;;22.98;17.85;;;;;;;14.54;65.64;100556.66;10208719;29;20414;-78
2023/05/06 22:53:14;;;;;;;23.58;18.45;;;;;;;14.47;64.99;100556.38;10196467;29;20119;-77
2023/05/06 22:58:18;;;;;;;24.85;18.73;;;;;;;14.40;65.44;100567.91;10207092;29;20048;-78
2023/05/06 23:03:22;;;;;;;26.63;19.25;;;;;;;14.36;66.20;100551.94;10199749;29;20375;-78